sensor_id;sensor_type;location;lat;lon;timestamp;P1;durP1;ratioP1;P2;durP2;ratioP2
65174;SDS011;51761;42.126;24.752;2022-12-11T00:01:53;111.95;;;48.40;;
65174;SDS011;51761;42.126;24.752;2022-12-11T00:04:18;107.20;;;48.13;;
65174;SDS011;51761;42.126;24.752;2022-12-11T00:06:44;111.88;;;48.05;;
65174;SDS011;51761;42.126;24.752;2022-12-11T00:09:09;112.63;;;51.28;;
65174;SDS011;51761;42.126;24.752;2022-12-11T00:11:35;110.47;;;47.38;;
65174;SDS011;51761;42.126;24.752;2022-12-11T00:14:01;116.20;;;49.97;;
65174;SDS011;51761;42.126;24.752;2022-12-11T00:16:27;110.97;;;49.33;;
65174;SDS011;51761;42.126;24.752;2022-12-11T00:18:52;108.18;;;47.90;;
65174;SDS011;51761;42.126;24.752;2022-12-11T00:21:18;116.50;;;49.47;;
65174;SDS011;51761;42.126;24.752;2022-12-11T00:23:44;119.80;;;51.20;;
65174;SDS011;51761;42.126;24.752;2022-12-11T00:26:13;117.05;;;48.92;;
65174;SDS011;51761;42.126;24.752;2022-12-11T00:28:40;112.95;;;48.72;;
65174;SDS011;51761;42.126;24.752;2022-12-11T00:31:07;119.57;;;49.92;;
65174;SDS011;51761;42.126;24.752;2022-12-11T00:33:35;125.15;;;53.47;;
65174;SDS011;51761;42.126;24.752;2022-12-11T00:36:01;126.82;;;52.20;;
65174;SDS011;51761;42.126;24.752;2022-12-11T00:38:27;129.73;;;53.42;;
65174;SDS011;51761;42.126;24.752;2022-12-11T00:40:56;113.78;;;48.22;;
65174;SDS011;51761;42.126;24.752;2022-12-11T00:43:23;121.00;;;48.45;;
65174;SDS011;51761;42.126;24.752;2022-12-11T00:45:48;119.50;;;49.80;;
65174;SDS011;51761;42.126;24.752;2022-12-11T00:48:14;109.88;;;47.65;;
65174;SDS011;51761;42.126;24.752;2022-12-11T00:50:39;138.95;;;51.40;;
65174;SDS011;51761;42.126;24.752;2022-12-11T00:53:05;112.18;;;49.97;;
65174;SDS011;51761;42.126;24.752;2022-12-11T00:55:35;115.13;;;46.05;;
65174;SDS011;51761;42.126;24.752;2022-12-11T00:58:02;116.68;;;47.72;;
65174;SDS011;51761;42.126;24.752;2022-12-11T01:00:28;102.78;;;45.38;;
65174;SDS011;51761;42.126;24.752;2022-12-11T01:02:53;108.18;;;43.30;;
65174;SDS011;51761;42.126;24.752;2022-12-11T01:05:19;95.80;;;41.78;;
65174;SDS011;51761;42.126;24.752;2022-12-11T01:07:44;98.78;;;41.65;;
65174;SDS011;51761;42.126;24.752;2022-12-11T01:10:13;100.43;;;43.38;;
65174;SDS011;51761;42.126;24.752;2022-12-11T01:12:55;97.90;;;40.65;;
65174;SDS011;51761;42.126;24.752;2022-12-11T01:15:26;95.68;;;39.55;;
65174;SDS011;51761;42.126;24.752;2022-12-11T01:17:53;85.45;;;38.67;;
65174;SDS011;51761;42.126;24.752;2022-12-11T01:20:20;85.10;;;38.53;;
65174;SDS011;51761;42.126;24.752;2022-12-11T01:22:46;88.00;;;39.35;;
65174;SDS011;51761;42.126;24.752;2022-12-11T01:25:12;85.78;;;38.95;;
65174;SDS011;51761;42.126;24.752;2022-12-11T01:27:38;85.28;;;36.53;;
65174;SDS011;51761;42.126;24.752;2022-12-11T01:30:05;84.32;;;38.53;;
65174;SDS011;51761;42.126;24.752;2022-12-11T01:32:32;85.70;;;38.35;;
65174;SDS011;51761;42.126;24.752;2022-12-11T01:34:58;79.43;;;36.20;;
65174;SDS011;51761;42.126;24.752;2022-12-11T01:37:24;84.68;;;37.70;;
65174;SDS011;51761;42.126;24.752;2022-12-11T01:39:50;88.32;;;39.33;;
65174;SDS011;51761;42.126;24.752;2022-12-11T01:42:19;92.43;;;37.97;;
65174;SDS011;51761;42.126;24.752;2022-12-11T01:47:10;81.90;;;35.08;;
65174;SDS011;51761;42.126;24.752;2022-12-11T01:49:36;86.30;;;37.17;;
65174;SDS011;51761;42.126;24.752;2022-12-11T01:52:11;89.05;;;37.97;;
65174;SDS011;51761;42.126;24.752;2022-12-11T01:54:43;84.10;;;37.90;;
65174;SDS011;51761;42.126;24.752;2022-12-11T01:57:10;90.18;;;38.20;;
65174;SDS011;51761;42.126;24.752;2022-12-11T01:59:39;81.07;;;36.88;;
65174;SDS011;51761;42.126;24.752;2022-12-11T02:02:09;86.15;;;38.75;;
65174;SDS011;51761;42.126;24.752;2022-12-11T02:04:39;84.88;;;40.45;;
65174;SDS011;51761;42.126;24.752;2022-12-11T02:07:08;95.63;;;40.13;;
65174;SDS011;51761;42.126;24.752;2022-12-11T02:09:34;95.25;;;40.17;;
65174;SDS011;51761;42.126;24.752;2022-12-11T02:30:56;73.47;;;33.38;;
65174;SDS011;51761;42.126;24.752;2022-12-11T02:33:32;83.28;;;35.45;;
65174;SDS011;51761;42.126;24.752;2022-12-11T02:36:10;81.60;;;35.10;;
65174;SDS011;51761;42.126;24.752;2022-12-11T02:38:40;85.10;;;37.38;;
65174;SDS011;51761;42.126;24.752;2022-12-11T02:43:41;81.25;;;35.03;;
65174;SDS011;51761;42.126;24.752;2022-12-11T02:46:08;77.90;;;35.28;;
65174;SDS011;51761;42.126;24.752;2022-12-11T02:48:35;71.65;;;33.05;;
65174;SDS011;51761;42.126;24.752;2022-12-11T02:51:02;74.45;;;30.38;;
65174;SDS011;51761;42.126;24.752;2022-12-11T02:53:30;75.18;;;33.90;;
65174;SDS011;51761;42.126;24.752;2022-12-11T02:56:07;72.07;;;32.58;;
65174;SDS011;51761;42.126;24.752;2022-12-11T02:58:47;66.93;;;30.70;;
65174;SDS011;51761;42.126;24.752;2022-12-11T03:01:16;70.00;;;31.17;;
65174;SDS011;51761;42.126;24.752;2022-12-11T03:03:41;65.25;;;29.83;;
65174;SDS011;51761;42.126;24.752;2022-12-11T03:06:08;74.93;;;31.80;;
65174;SDS011;51761;42.126;24.752;2022-12-11T03:08:39;76.68;;;32.40;;
65174;SDS011;51761;42.126;24.752;2022-12-11T03:11:04;63.92;;;30.75;;
65174;SDS011;51761;42.126;24.752;2022-12-11T03:13:33;67.80;;;33.60;;
65174;SDS011;51761;42.126;24.752;2022-12-11T03:18:30;78.22;;;30.45;;
65174;SDS011;51761;42.126;24.752;2022-12-11T03:21:04;76.28;;;31.30;;
65174;SDS011;51761;42.126;24.752;2022-12-11T03:26:18;70.15;;;30.25;;
65174;SDS011;51761;42.126;24.752;2022-12-11T03:31:41;62.83;;;28.92;;
65174;SDS011;51761;42.126;24.752;2022-12-11T03:34:17;62.83;;;30.48;;
65174;SDS011;51761;42.126;24.752;2022-12-11T03:36:46;67.85;;;29.45;;
65174;SDS011;51761;42.126;24.752;2022-12-11T03:39:15;63.15;;;28.67;;
65174;SDS011;51761;42.126;24.752;2022-12-11T03:41:47;64.90;;;28.17;;
65174;SDS011;51761;42.126;24.752;2022-12-11T03:44:15;64.65;;;28.67;;
65174;SDS011;51761;42.126;24.752;2022-12-11T03:46:42;61.83;;;27.20;;
65174;SDS011;51761;42.126;24.752;2022-12-11T03:49:14;61.15;;;28.20;;
65174;SDS011;51761;42.126;24.752;2022-12-11T03:51:43;69.43;;;27.02;;
65174;SDS011;51761;42.126;24.752;2022-12-11T03:54:12;62.25;;;28.00;;
65174;SDS011;51761;42.126;24.752;2022-12-11T03:56:38;65.65;;;27.42;;
65174;SDS011;51761;42.126;24.752;2022-12-11T03:59:06;66.75;;;28.02;;
65174;SDS011;51761;42.126;24.752;2022-12-11T04:01:32;62.60;;;25.58;;
65174;SDS011;51761;42.126;24.752;2022-12-11T04:03:58;54.00;;;25.48;;
65174;SDS011;51761;42.126;24.752;2022-12-11T04:16:28;66.25;;;25.17;;
65174;SDS011;51761;42.126;24.752;2022-12-11T04:18:54;67.72;;;26.48;;
65174;SDS011;51761;42.126;24.752;2022-12-11T04:21:38;68.00;;;26.20;;
65174;SDS011;51761;42.126;24.752;2022-12-11T04:24:22;60.00;;;24.33;;
65174;SDS011;51761;42.126;24.752;2022-12-11T04:26:47;57.35;;;23.05;;
65174;SDS011;51761;42.126;24.752;2022-12-11T04:29:13;51.38;;;22.98;;
65174;SDS011;51761;42.126;24.752;2022-12-11T04:31:39;53.63;;;25.15;;
65174;SDS011;51761;42.126;24.752;2022-12-11T04:34:04;51.03;;;23.17;;
65174;SDS011;51761;42.126;24.752;2022-12-11T04:36:30;56.38;;;22.70;;
65174;SDS011;51761;42.126;24.752;2022-12-11T04:38:55;56.17;;;24.77;;
65174;SDS011;51761;42.126;24.752;2022-12-11T04:41:21;49.53;;;23.40;;
65174;SDS011;51761;42.126;24.752;2022-12-11T04:43:46;57.20;;;23.38;;
65174;SDS011;51761;42.126;24.752;2022-12-11T04:46:16;57.08;;;22.33;;
65174;SDS011;51761;42.126;24.752;2022-12-11T04:48:43;49.75;;;23.45;;
65174;SDS011;51761;42.126;24.752;2022-12-11T04:51:10;53.53;;;23.02;;
65174;SDS011;51761;42.126;24.752;2022-12-11T04:53:35;51.42;;;22.17;;
65174;SDS011;51761;42.126;24.752;2022-12-11T04:56:05;58.05;;;21.35;;
65174;SDS011;51761;42.126;24.752;2022-12-11T04:58:32;51.75;;;21.00;;
65174;SDS011;51761;42.126;24.752;2022-12-11T05:00:59;45.78;;;22.52;;
65174;SDS011;51761;42.126;24.752;2022-12-11T05:03:25;49.55;;;22.30;;
65174;SDS011;51761;42.126;24.752;2022-12-11T05:05:51;60.65;;;24.67;;
65174;SDS011;51761;42.126;24.752;2022-12-11T05:08:18;51.33;;;22.27;;
65174;SDS011;51761;42.126;24.752;2022-12-11T05:10:53;42.72;;;20.08;;
65174;SDS011;51761;42.126;24.752;2022-12-11T05:13:29;45.42;;;20.10;;
65174;SDS011;51761;42.126;24.752;2022-12-11T05:15:54;43.90;;;22.33;;
65174;SDS011;51761;42.126;24.752;2022-12-11T05:18:21;52.42;;;20.33;;
65174;SDS011;51761;42.126;24.752;2022-12-11T05:20:54;48.38;;;21.17;;
65174;SDS011;51761;42.126;24.752;2022-12-11T05:23:23;46.67;;;20.25;;
65174;SDS011;51761;42.126;24.752;2022-12-11T05:25:56;41.30;;;21.05;;
65174;SDS011;51761;42.126;24.752;2022-12-11T05:33:21;48.17;;;21.55;;
65174;SDS011;51761;42.126;24.752;2022-12-11T05:35:48;52.92;;;23.70;;
65174;SDS011;51761;42.126;24.752;2022-12-11T05:38:14;67.85;;;25.30;;
65174;SDS011;51761;42.126;24.752;2022-12-11T05:40:39;56.80;;;24.45;;
65174;SDS011;51761;42.126;24.752;2022-12-11T05:43:05;52.42;;;24.25;;
65174;SDS011;51761;42.126;24.752;2022-12-11T05:45:30;54.60;;;23.02;;
65174;SDS011;51761;42.126;24.752;2022-12-11T05:47:56;51.90;;;22.83;;
65174;SDS011;51761;42.126;24.752;2022-12-11T05:50:21;46.42;;;23.60;;
65174;SDS011;51761;42.126;24.752;2022-12-11T05:52:46;51.40;;;22.17;;
65174;SDS011;51761;42.126;24.752;2022-12-11T05:55:12;54.95;;;23.67;;
65174;SDS011;51761;42.126;24.752;2022-12-11T05:57:37;51.15;;;21.95;;
65174;SDS011;51761;42.126;24.752;2022-12-11T06:00:04;50.47;;;22.27;;
65174;SDS011;51761;42.126;24.752;2022-12-11T06:02:30;50.08;;;23.30;;
65174;SDS011;51761;42.126;24.752;2022-12-11T06:04:55;52.25;;;20.45;;
65174;SDS011;51761;42.126;24.752;2022-12-11T06:07:21;47.55;;;21.33;;
65174;SDS011;51761;42.126;24.752;2022-12-11T06:09:46;51.45;;;21.48;;
65174;SDS011;51761;42.126;24.752;2022-12-11T06:12:12;45.80;;;20.23;;
65174;SDS011;51761;42.126;24.752;2022-12-11T06:14:37;46.45;;;21.10;;
65174;SDS011;51761;42.126;24.752;2022-12-11T06:17:02;53.25;;;21.13;;
65174;SDS011;51761;42.126;24.752;2022-12-11T06:19:28;41.90;;;21.40;;
65174;SDS011;51761;42.126;24.752;2022-12-11T06:21:53;48.97;;;21.65;;
65174;SDS011;51761;42.126;24.752;2022-12-11T06:24:20;51.95;;;20.88;;
65174;SDS011;51761;42.126;24.752;2022-12-11T06:26:45;47.67;;;21.40;;
65174;SDS011;51761;42.126;24.752;2022-12-11T06:29:11;127.03;;;57.45;;
65174;SDS011;51761;42.126;24.752;2022-12-11T06:31:36;57.67;;;25.30;;
65174;SDS011;51761;42.126;24.752;2022-12-11T06:34:02;41.00;;;20.20;;
65174;SDS011;51761;42.126;24.752;2022-12-11T06:36:27;40.80;;;20.60;;
65174;SDS011;51761;42.126;24.752;2022-12-11T06:38:53;42.38;;;19.20;;
65174;SDS011;51761;42.126;24.752;2022-12-11T06:41:19;40.55;;;18.45;;
65174;SDS011;51761;42.126;24.752;2022-12-11T06:43:45;45.38;;;19.50;;
65174;SDS011;51761;42.126;24.752;2022-12-11T06:46:12;45.42;;;19.52;;
65174;SDS011;51761;42.126;24.752;2022-12-11T06:48:39;41.88;;;20.05;;
65174;SDS011;51761;42.126;24.752;2022-12-11T06:51:06;51.28;;;19.52;;
65174;SDS011;51761;42.126;24.752;2022-12-11T06:53:33;36.70;;;16.15;;
65174;SDS011;51761;42.126;24.752;2022-12-11T06:56:06;43.75;;;17.38;;
65174;SDS011;51761;42.126;24.752;2022-12-11T06:58:34;39.55;;;16.63;;
65174;SDS011;51761;42.126;24.752;2022-12-11T07:01:01;41.45;;;18.30;;
65174;SDS011;51761;42.126;24.752;2022-12-11T07:03:28;50.13;;;20.23;;
65174;SDS011;51761;42.126;24.752;2022-12-11T07:05:53;48.50;;;23.67;;
65174;SDS011;51761;42.126;24.752;2022-12-11T07:08:23;51.13;;;24.33;;
65174;SDS011;51761;42.126;24.752;2022-12-11T07:10:48;54.40;;;27.55;;
65174;SDS011;51761;42.126;24.752;2022-12-11T07:13:14;54.67;;;26.05;;
65174;SDS011;51761;42.126;24.752;2022-12-11T07:15:39;47.90;;;23.50;;
65174;SDS011;51761;42.126;24.752;2022-12-11T07:18:05;42.60;;;19.67;;
65174;SDS011;51761;42.126;24.752;2022-12-11T07:20:30;56.28;;;26.20;;
65174;SDS011;51761;42.126;24.752;2022-12-11T07:22:56;36.00;;;20.63;;
65174;SDS011;51761;42.126;24.752;2022-12-11T07:25:21;43.42;;;21.75;;
65174;SDS011;51761;42.126;24.752;2022-12-11T07:27:47;48.95;;;22.73;;
65174;SDS011;51761;42.126;24.752;2022-12-11T07:30:12;49.28;;;24.23;;
65174;SDS011;51761;42.126;24.752;2022-12-11T07:32:38;40.42;;;19.90;;
65174;SDS011;51761;42.126;24.752;2022-12-11T07:35:03;47.55;;;19.77;;
65174;SDS011;51761;42.126;24.752;2022-12-11T07:37:29;43.83;;;21.02;;
65174;SDS011;51761;42.126;24.752;2022-12-11T07:39:55;45.63;;;21.63;;
65174;SDS011;51761;42.126;24.752;2022-12-11T07:42:20;55.03;;;21.73;;
65174;SDS011;51761;42.126;24.752;2022-12-11T07:44:46;42.42;;;20.00;;
65174;SDS011;51761;42.126;24.752;2022-12-11T07:47:11;49.45;;;19.90;;
65174;SDS011;51761;42.126;24.752;2022-12-11T07:49:36;55.38;;;18.95;;
65174;SDS011;51761;42.126;24.752;2022-12-11T07:52:02;61.42;;;19.55;;
65174;SDS011;51761;42.126;24.752;2022-12-11T07:54:28;43.05;;;20.90;;
65174;SDS011;51761;42.126;24.752;2022-12-11T07:56:53;48.53;;;19.45;;
65174;SDS011;51761;42.126;24.752;2022-12-11T07:59:19;40.55;;;15.70;;
65174;SDS011;51761;42.126;24.752;2022-12-11T08:01:45;38.08;;;16.35;;
65174;SDS011;51761;42.126;24.752;2022-12-11T08:04:10;44.20;;;17.83;;
65174;SDS011;51761;42.126;24.752;2022-12-11T08:06:39;36.03;;;17.50;;
65174;SDS011;51761;42.126;24.752;2022-12-11T08:09:07;32.53;;;15.90;;
65174;SDS011;51761;42.126;24.752;2022-12-11T08:11:34;28.42;;;14.07;;
65174;SDS011;51761;42.126;24.752;2022-12-11T08:14:00;64.88;;;16.00;;
65174;SDS011;51761;42.126;24.752;2022-12-11T08:16:26;55.33;;;18.98;;
65174;SDS011;51761;42.126;24.752;2022-12-11T08:18:52;53.22;;;17.38;;
65174;SDS011;51761;42.126;24.752;2022-12-11T08:21:22;40.92;;;18.98;;
65174;SDS011;51761;42.126;24.752;2022-12-11T08:23:49;44.70;;;18.23;;
65174;SDS011;51761;42.126;24.752;2022-12-11T08:26:20;76.75;;;24.52;;
65174;SDS011;51761;42.126;24.752;2022-12-11T08:28:51;43.97;;;20.60;;
65174;SDS011;51761;42.126;24.752;2022-12-11T08:31:17;51.85;;;21.95;;
65174;SDS011;51761;42.126;24.752;2022-12-11T08:33:44;64.15;;;23.70;;
65174;SDS011;51761;42.126;24.752;2022-12-11T08:36:11;59.67;;;24.40;;
65174;SDS011;51761;42.126;24.752;2022-12-11T08:38:39;54.35;;;25.00;;
65174;SDS011;51761;42.126;24.752;2022-12-11T08:41:12;54.67;;;23.98;;
65174;SDS011;51761;42.126;24.752;2022-12-11T08:43:41;58.55;;;22.83;;
65174;SDS011;51761;42.126;24.752;2022-12-11T08:46:07;44.72;;;21.80;;
65174;SDS011;51761;42.126;24.752;2022-12-11T08:48:33;56.17;;;21.80;;
65174;SDS011;51761;42.126;24.752;2022-12-11T08:51:01;51.83;;;21.60;;
65174;SDS011;51761;42.126;24.752;2022-12-11T08:53:28;41.58;;;20.00;;
65174;SDS011;51761;42.126;24.752;2022-12-11T08:55:59;37.60;;;17.55;;
65174;SDS011;51761;42.126;24.752;2022-12-11T08:58:25;39.83;;;17.02;;
65174;SDS011;51761;42.126;24.752;2022-12-11T09:00:51;42.70;;;19.05;;
65174;SDS011;51761;42.126;24.752;2022-12-11T09:03:16;42.45;;;17.73;;
65174;SDS011;51761;42.126;24.752;2022-12-11T09:05:42;33.40;;;16.73;;
65174;SDS011;51761;42.126;24.752;2022-12-11T09:08:07;42.45;;;15.43;;
65174;SDS011;51761;42.126;24.752;2022-12-11T09:10:33;53.50;;;15.82;;
65174;SDS011;51761;42.126;24.752;2022-12-11T09:12:58;42.97;;;17.42;;
65174;SDS011;51761;42.126;24.752;2022-12-11T09:15:23;43.25;;;19.02;;
65174;SDS011;51761;42.126;24.752;2022-12-11T09:17:49;42.35;;;19.65;;
65174;SDS011;51761;42.126;24.752;2022-12-11T09:20:14;40.15;;;18.88;;
65174;SDS011;51761;42.126;24.752;2022-12-11T09:22:40;35.92;;;17.17;;
65174;SDS011;51761;42.126;24.752;2022-12-11T09:25:07;34.15;;;14.43;;
65174;SDS011;51761;42.126;24.752;2022-12-11T09:27:33;36.22;;;15.82;;
65174;SDS011;51761;42.126;24.752;2022-12-11T09:29:59;32.03;;;12.90;;
65174;SDS011;51761;42.126;24.752;2022-12-11T09:32:25;26.52;;;11.43;;
65174;SDS011;51761;42.126;24.752;2022-12-11T09:34:50;27.30;;;12.20;;
65174;SDS011;51761;42.126;24.752;2022-12-11T09:37:16;20.38;;;9.20;;
65174;SDS011;51761;42.126;24.752;2022-12-11T09:39:41;18.75;;;8.77;;
65174;SDS011;51761;42.126;24.752;2022-12-11T09:44:59;27.63;;;9.80;;
65174;SDS011;51761;42.126;24.752;2022-12-11T09:47:34;47.28;;;16.55;;
65174;SDS011;51761;42.126;24.752;2022-12-11T09:55:15;34.08;;;14.85;;
65174;SDS011;51761;42.126;24.752;2022-12-11T10:00:46;30.92;;;12.80;;
65174;SDS011;51761;42.126;24.752;2022-12-11T10:04:02;78.35;;;25.92;;
65174;SDS011;51761;42.126;24.752;2022-12-11T10:17:35;36.13;;;13.32;;
65174;SDS011;51761;42.126;24.752;2022-12-11T10:23:01;23.63;;;11.15;;
65174;SDS011;51761;42.126;24.752;2022-12-11T10:25:39;31.35;;;11.60;;
65174;SDS011;51761;42.126;24.752;2022-12-11T10:28:11;25.95;;;10.88;;
65174;SDS011;51761;42.126;24.752;2022-12-11T10:30:39;18.60;;;9.07;;
65174;SDS011;51761;42.126;24.752;2022-12-11T10:33:30;27.98;;;8.77;;
65174;SDS011;51761;42.126;24.752;2022-12-11T10:36:24;15.80;;;6.47;;
65174;SDS011;51761;42.126;24.752;2022-12-11T10:38:55;22.27;;;5.78;;
65174;SDS011;51761;42.126;24.752;2022-12-11T10:41:23;17.30;;;6.25;;
65174;SDS011;51761;42.126;24.752;2022-12-11T10:46:45;16.52;;;7.05;;
65174;SDS011;51761;42.126;24.752;2022-12-11T10:49:50;19.27;;;6.82;;
65174;SDS011;51761;42.126;24.752;2022-12-11T10:52:09;13.68;;;6.43;;
65174;SDS011;51761;42.126;24.752;2022-12-11T10:54:45;17.23;;;5.18;;
65174;SDS011;51761;42.126;24.752;2022-12-11T10:57:24;12.68;;;4.95;;
65174;SDS011;51761;42.126;24.752;2022-12-11T10:59:52;13.25;;;4.22;;
65174;SDS011;51761;42.126;24.752;2022-12-11T11:02:30;16.90;;;5.63;;
65174;SDS011;51761;42.126;24.752;2022-12-11T11:04:59;12.40;;;3.92;;
65174;SDS011;51761;42.126;24.752;2022-12-11T11:07:34;15.73;;;4.47;;
65174;SDS011;51761;42.126;24.752;2022-12-11T11:12:44;16.83;;;4.22;;
65174;SDS011;51761;42.126;24.752;2022-12-11T11:15:18;14.35;;;4.35;;
65174;SDS011;51761;42.126;24.752;2022-12-11T11:17:50;15.82;;;3.95;;
65174;SDS011;51761;42.126;24.752;2022-12-11T11:20:19;12.75;;;3.88;;
65174;SDS011;51761;42.126;24.752;2022-12-11T11:22:48;17.10;;;4.53;;
65174;SDS011;51761;42.126;24.752;2022-12-11T11:25:23;12.65;;;4.35;;
65174;SDS011;51761;42.126;24.752;2022-12-11T11:27:53;17.90;;;4.20;;
65174;SDS011;51761;42.126;24.752;2022-12-11T11:30:21;9.93;;;4.85;;
65174;SDS011;51761;42.126;24.752;2022-12-11T11:32:58;20.80;;;5.47;;
65174;SDS011;51761;42.126;24.752;2022-12-11T11:38:12;23.65;;;6.65;;
65174;SDS011;51761;42.126;24.752;2022-12-11T11:51:14;39.28;;;7.80;;
65174;SDS011;51761;42.126;24.752;2022-12-11T11:53:48;16.05;;;6.22;;
65174;SDS011;51761;42.126;24.752;2022-12-11T11:56:25;49.28;;;6.75;;
65174;SDS011;51761;42.126;24.752;2022-12-11T12:01:27;32.65;;;9.40;;
65174;SDS011;51761;42.126;24.752;2022-12-11T12:03:53;33.22;;;9.52;;
65174;SDS011;51761;42.126;24.752;2022-12-11T12:12:14;12.70;;;3.17;;
65174;SDS011;51761;42.126;24.752;2022-12-11T12:17:52;16.73;;;4.72;;
65174;SDS011;51761;42.126;24.752;2022-12-11T12:21:04;17.05;;;5.25;;
65174;SDS011;51761;42.126;24.752;2022-12-11T12:26:28;21.85;;;4.63;;
65174;SDS011;51761;42.126;24.752;2022-12-11T12:32:11;17.90;;;5.10;;
65174;SDS011;51761;42.126;24.752;2022-12-11T12:47:54;22.23;;;6.53;;
65174;SDS011;51761;42.126;24.752;2022-12-11T12:50:23;23.65;;;7.30;;
65174;SDS011;51761;42.126;24.752;2022-12-11T12:58:06;24.20;;;7.63;;
65174;SDS011;51761;42.126;24.752;2022-12-11T13:03:01;21.60;;;6.63;;
65174;SDS011;51761;42.126;24.752;2022-12-11T13:08:25;36.72;;;9.60;;
65174;SDS011;51761;42.126;24.752;2022-12-11T13:10:59;30.75;;;8.75;;
65174;SDS011;51761;42.126;24.752;2022-12-11T13:13:33;21.25;;;8.57;;
65174;SDS011;51761;42.126;24.752;2022-12-11T13:18:58;35.83;;;10.38;;
65174;SDS011;51761;42.126;24.752;2022-12-11T13:21:31;34.28;;;11.63;;
65174;SDS011;51761;42.126;24.752;2022-12-11T13:26:49;25.80;;;9.90;;
65174;SDS011;51761;42.126;24.752;2022-12-11T13:29:28;32.28;;;11.32;;
65174;SDS011;51761;42.126;24.752;2022-12-11T13:32:01;30.42;;;11.18;;
65174;SDS011;51761;42.126;24.752;2022-12-11T13:34:31;20.80;;;8.27;;
65174;SDS011;51761;42.126;24.752;2022-12-11T13:36:59;22.33;;;6.72;;
65174;SDS011;51761;42.126;24.752;2022-12-11T13:39:31;22.15;;;7.88;;
65174;SDS011;51761;42.126;24.752;2022-12-11T13:42:06;22.63;;;6.22;;
65174;SDS011;51761;42.126;24.752;2022-12-11T13:44:45;28.98;;;8.25;;
65174;SDS011;51761;42.126;24.752;2022-12-11T13:47:13;25.20;;;8.60;;
65174;SDS011;51761;42.126;24.752;2022-12-11T13:49:41;25.13;;;8.07;;
65174;SDS011;51761;42.126;24.752;2022-12-11T13:52:16;30.90;;;8.77;;
65174;SDS011;51761;42.126;24.752;2022-12-11T13:54:51;21.17;;;7.07;;
65174;SDS011;51761;42.126;24.752;2022-12-11T13:57:23;24.08;;;9.80;;
65174;SDS011;51761;42.126;24.752;2022-12-11T13:59:54;18.00;;;6.65;;
65174;SDS011;51761;42.126;24.752;2022-12-11T14:02:54;26.60;;;9.05;;
65174;SDS011;51761;42.126;24.752;2022-12-11T14:05:13;9.35;;;4.07;;
65174;SDS011;51761;42.126;24.752;2022-12-11T14:07:49;8.55;;;2.67;;
65174;SDS011;51761;42.126;24.752;2022-12-11T14:15:37;9.50;;;2.42;;
65174;SDS011;51761;42.126;24.752;2022-12-11T14:18:12;7.85;;;1.85;;
65174;SDS011;51761;42.126;24.752;2022-12-11T14:20:42;8.15;;;2.65;;
65174;SDS011;51761;42.126;24.752;2022-12-11T14:23:21;6.43;;;2.70;;
65174;SDS011;51761;42.126;24.752;2022-12-11T14:25:52;2.78;;;1.60;;
65174;SDS011;51761;42.126;24.752;2022-12-11T14:28:41;10.05;;;4.65;;
65174;SDS011;51761;42.126;24.752;2022-12-11T14:31:07;11.57;;;4.80;;
65174;SDS011;51761;42.126;24.752;2022-12-11T14:33:39;9.27;;;3.67;;
65174;SDS011;51761;42.126;24.752;2022-12-11T14:36:10;4.78;;;2.17;;
65174;SDS011;51761;42.126;24.752;2022-12-11T14:38:41;2.65;;;1.40;;
65174;SDS011;51761;42.126;24.752;2022-12-11T14:41:20;1.10;;;0.85;;
65174;SDS011;51761;42.126;24.752;2022-12-11T14:43:52;5.40;;;1.60;;
65174;SDS011;51761;42.126;24.752;2022-12-11T14:46:43;4.85;;;1.98;;
65174;SDS011;51761;42.126;24.752;2022-12-11T14:49:16;4.07;;;1.90;;
65174;SDS011;51761;42.126;24.752;2022-12-11T14:51:43;6.80;;;2.53;;
65174;SDS011;51761;42.126;24.752;2022-12-11T14:54:13;7.90;;;2.50;;
65174;SDS011;51761;42.126;24.752;2022-12-11T14:56:52;5.35;;;2.05;;
65174;SDS011;51761;42.126;24.752;2022-12-11T14:59:19;10.07;;;2.80;;
65174;SDS011;51761;42.126;24.752;2022-12-11T15:01:56;11.38;;;2.20;;
65174;SDS011;51761;42.126;24.752;2022-12-11T15:04:44;5.20;;;2.13;;
65174;SDS011;51761;42.126;24.752;2022-12-11T15:07:20;4.07;;;2.30;;
65174;SDS011;51761;42.126;24.752;2022-12-11T15:09:46;24.63;;;12.45;;
65174;SDS011;51761;42.126;24.752;2022-12-11T15:12:12;23.25;;;9.77;;
65174;SDS011;51761;42.126;24.752;2022-12-11T15:17:40;19.10;;;7.07;;
65174;SDS011;51761;42.126;24.752;2022-12-11T15:20:07;4.07;;;1.88;;
65174;SDS011;51761;42.126;24.752;2022-12-11T15:22:40;5.78;;;2.05;;
65174;SDS011;51761;42.126;24.752;2022-12-11T15:25:15;7.70;;;3.25;;
65174;SDS011;51761;42.126;24.752;2022-12-11T15:27:48;9.82;;;2.80;;
65174;SDS011;51761;42.126;24.752;2022-12-11T15:33:17;11.63;;;5.07;;
65174;SDS011;51761;42.126;24.752;2022-12-11T15:35:53;2.33;;;1.27;;
65174;SDS011;51761;42.126;24.752;2022-12-11T15:38:28;2.53;;;1.40;;
65174;SDS011;51761;42.126;24.752;2022-12-11T15:40:56;10.60;;;6.20;;
65174;SDS011;51761;42.126;24.752;2022-12-11T15:43:22;4.00;;;2.55;;
65174;SDS011;51761;42.126;24.752;2022-12-11T15:45:47;10.80;;;4.65;;
65174;SDS011;51761;42.126;24.752;2022-12-11T15:48:13;10.02;;;2.50;;
65174;SDS011;51761;42.126;24.752;2022-12-11T15:50:38;2.78;;;1.17;;
65174;SDS011;51761;42.126;24.752;2022-12-11T15:53:04;10.85;;;3.47;;
65174;SDS011;51761;42.126;24.752;2022-12-11T15:55:29;5.65;;;3.28;;
65174;SDS011;51761;42.126;24.752;2022-12-11T15:58:02;7.63;;;4.05;;
65174;SDS011;51761;42.126;24.752;2022-12-11T16:00:30;4.13;;;2.35;;
65174;SDS011;51761;42.126;24.752;2022-12-11T16:02:56;5.78;;;3.95;;
65174;SDS011;51761;42.126;24.752;2022-12-11T16:05:21;4.18;;;2.38;;
65174;SDS011;51761;42.126;24.752;2022-12-11T16:07:48;11.80;;;7.38;;
65174;SDS011;51761;42.126;24.752;2022-12-11T16:10:17;6.78;;;2.83;;
65174;SDS011;51761;42.126;24.752;2022-12-11T16:12:43;5.90;;;4.28;;
65174;SDS011;51761;42.126;24.752;2022-12-11T16:15:10;5.15;;;2.65;;
65174;SDS011;51761;42.126;24.752;2022-12-11T16:17:37;5.75;;;2.97;;
65174;SDS011;51761;42.126;24.752;2022-12-11T16:20:04;6.72;;;1.80;;
65174;SDS011;51761;42.126;24.752;2022-12-11T16:22:30;9.80;;;5.00;;
65174;SDS011;51761;42.126;24.752;2022-12-11T16:24:55;6.07;;;3.15;;
65174;SDS011;51761;42.126;24.752;2022-12-11T16:27:22;15.35;;;8.52;;
65174;SDS011;51761;42.126;24.752;2022-12-11T16:29:48;17.67;;;8.48;;
65174;SDS011;51761;42.126;24.752;2022-12-11T16:32:13;9.68;;;4.47;;
65174;SDS011;51761;42.126;24.752;2022-12-11T16:34:39;9.60;;;4.00;;
65174;SDS011;51761;42.126;24.752;2022-12-11T16:37:05;9.82;;;5.38;;
65174;SDS011;51761;42.126;24.752;2022-12-11T16:39:33;16.98;;;6.72;;
65174;SDS011;51761;42.126;24.752;2022-12-11T16:42:01;18.70;;;6.70;;
65174;SDS011;51761;42.126;24.752;2022-12-11T16:44:26;14.43;;;5.25;;
65174;SDS011;51761;42.126;24.752;2022-12-11T16:46:52;17.15;;;6.15;;
65174;SDS011;51761;42.126;24.752;2022-12-11T16:49:19;9.38;;;4.18;;
65174;SDS011;51761;42.126;24.752;2022-12-11T16:51:45;10.07;;;3.10;;
65174;SDS011;51761;42.126;24.752;2022-12-11T16:54:10;36.63;;;10.55;;